Time;durP1;ratioP1;P1;durP2;ratioP2;P2;SDS_P1;SDS_P2;PMS_P1;PMS_P2;Temp;Humidity;BMP_temperature;BMP_pressure;BME280_temperature;BME280_humidity;BME280_pressure;Samples;Min_cycle;Max_cycle;Signal;HPM_P1;HPM_P2
2021/06/23 00:02:09;;;;;;;6.35;5.18;;;;;;;;;;4978153;28;20124;-77
2021/06/23 00:04:35;;;;;;;5.63;5.13;;;;;;;;;;4976924;28;20501;-78
2021/06/23 00:07:01;;;;;;;5.93;5.45;;;;;;;;;;5022411;28;20120;-79
2021/06/23 00:09:27;;;;;;;4.57;4.20;;;;;;;;;;5036566;22;20066;-77
2021/06/23 00:11:56;;;;;;;4.88;4.47;;;;;;;;;;4994937;28;20096;-76
2021/06/23 00:14:23;;;;;;;5.78;4.85;;;;;;;;;;4985119;28;20062;-76
2021/06/23 00:16:49;;;;;;;5.63;5.22;;;;;;;;;;4974846;28;20053;-77
2021/06/23 00:19:15;;;;;;;5.93;5.22;;;;;;;;;;4973307;28;20043;-77
2021/06/23 00:21:41;;;;;;;5.45;5.00;;;;;;;;;;4974724;28;20035;-77
2021/06/23 00:24:07;;;;;;;5.65;5.07;;;;;;;;;;4978424;28;20030;-77
2021/06/23 00:26:34;;;;;;;6.88;5.47;;;;;;;;;;4993740;28;20026;-77
2021/06/23 00:29:00;;;;;;;5.95;5.45;;;;;;;;;;4993789;28;20033;-77
2021/06/23 00:31:27;;;;;;;5.32;4.90;;;;;;;;;;4993932;28;20043;-77
2021/06/23 00:33:54;;;;;;;4.70;4.40;;;;;;;;;;4993855;28;20046;-77
2021/06/23 00:36:20;;;;;;;4.57;4.18;;;;;;;;;;4994328;28;20023;-77
2021/06/23 00:38:46;;;;;;;4.63;4.32;;;;;;;;;;5008928;28;20033;-77
2021/06/23 00:41:19;;;;;;;5.35;4.57;;;;;;;;;;5011586;28;20022;-77
2021/06/23 00:43:49;;;;;;;4.07;3.78;;;;;;;;;;5013455;28;20121;-77
2021/06/23 00:46:16;;;;;;;3.95;3.60;;;;;;;;;;4996087;28;20717;-77
2021/06/23 00:48:42;;;;;;;3.78;3.40;;;;;;;;;;4992989;28;20069;-77
2021/06/23 00:51:08;;;;;;;3.05;2.85;;;;;;;;;;4993892;28;20027;-77
2021/06/23 00:53:35;;;;;;;3.72;3.30;;;;;;;;;;4993638;28;20026;-77
2021/06/23 00:56:01;;;;;;;3.15;2.90;;;;;;;;;;4993458;28;20129;-77
2021/06/23 00:58:27;;;;;;;3.40;2.30;;;;;;;;;;4993568;28;20058;-77
2021/06/23 01:00:55;;;;;;;2.75;2.55;;;;;;;;;;4976402;28;20027;-77
2021/06/23 01:03:21;;;;;;;3.00;2.80;;;;;;;;;;4993634;28;20022;-77
2021/06/23 01:05:47;;;;;;;3.45;3.15;;;;;;;;;;4986459;28;20027;-77
2021/06/23 01:08:13;;;;;;;3.20;2.72;;;;;;;;;;5001169;28;20042;-77
2021/06/23 01:10:39;;;;;;;3.25;3.05;;;;;;;;;;4975693;28;20042;-77
2021/06/23 01:13:05;;;;;;;4.07;3.67;;;;;;;;;;4975446;28;20541;-77
2021/06/23 01:15:33;;;;;;;4.40;3.70;;;;;;;;;;4975382;28;20030;-77
2021/06/23 01:18:00;;;;;;;5.93;4.35;;;;;;;;;;4992895;28;20042;-76
2021/06/23 01:20:26;;;;;;;5.47;4.97;;;;;;;;;;4975271;28;20096;-76
2021/06/23 01:22:52;;;;;;;4.85;4.35;;;;;;;;;;4956244;28;20117;-76
2021/06/23 01:25:18;;;;;;;5.47;5.07;;;;;;;;;;4973497;28;20046;-77
2021/06/23 01:27:46;;;;;;;5.25;4.85;;;;;;;;;;4990667;28;20037;-77
2021/06/23 01:30:13;;;;;;;5.95;5.40;;;;;;;;;;4992768;28;20526;-77
2021/06/23 01:32:39;;;;;;;7.63;5.88;;;;;;;;;;4992969;28;20038;-77
2021/06/23 01:35:05;;;;;;;5.97;5.47;;;;;;;;;;4994611;28;20026;-76
2021/06/23 01:37:31;;;;;;;7.55;6.75;;;;;;;;;;5004220;28;20143;-76
2021/06/23 01:39:59;;;;;;;7.65;5.97;;;;;;;;;;5012067;28;20491;-76
2021/06/23 01:42:25;;;;;;;7.25;6.32;;;;;;;;;;5012917;28;20105;-76
2021/06/23 01:44:51;;;;;;;6.55;5.97;;;;;;;;;;5012777;28;20499;-76
2021/06/23 01:47:17;;;;;;;6.55;5.68;;;;;;;;;;4995593;28;20030;-76
2021/06/23 01:49:45;;;;;;;5.65;5.20;;;;;;;;;;4976456;28;20399;-77
2021/06/23 01:52:12;;;;;;;5.15;4.75;;;;;;;;;;4977419;28;20027;-77
2021/06/23 01:54:41;;;;;;;5.22;4.82;;;;;;;;;;4959009;28;20360;-76
2021/06/23 01:57:11;;;;;;;5.65;5.10;;;;;;;;;;4981547;28;20023;-76
2021/06/23 01:59:38;;;;;;;5.25;4.85;;;;;;;;;;4996543;28;20026;-77
2021/06/23 02:02:06;;;;;;;4.45;4.15;;;;;;;;;;4996582;28;20030;-76
2021/06/23 02:04:51;;;;;;;6.93;6.22;;;;;;;;;;4996591;28;20041;-77
2021/06/23 02:07:23;;;;;;;5.28;4.78;;;;;;;;;;5005002;28;20031;-77
2021/06/23 02:10:01;;;;;;;5.07;4.63;;;;;;;;;;4979605;28;20387;-77
2021/06/23 02:12:30;;;;;;;5.53;5.03;;;;;;;;;;4996968;28;20026;-77
2021/06/23 02:14:59;;;;;;;5.03;4.63;;;;;;;;;;4996505;28;20118;-77
2021/06/23 02:17:27;;;;;;;4.53;4.22;;;;;;;;;;4995008;28;20402;-77
2021/06/23 02:19:53;;;;;;;5.82;5.32;;;;;;;;;;4976551;28;20023;-77
2021/06/23 02:22:24;;;;;;;6.05;5.45;;;;;;;;;;4977443;28;20060;-77
2021/06/23 02:25:02;;;;;;;6.13;5.57;;;;;;;;;;4996173;28;20030;-77
2021/06/23 02:27:28;;;;;;;5.38;4.88;;;;;;;;;;4996335;28;20394;-77
2021/06/23 02:29:54;;;;;;;5.65;5.00;;;;;;;;;;4977674;28;20049;-77
2021/06/23 02:32:23;;;;;;;5.00;4.60;;;;;;;;;;4977433;28;20039;-77
2021/06/23 02:34:53;;;;;;;5.32;4.90;;;;;;;;;;4976704;28;20089;-77
2021/06/23 02:37:20;;;;;;;4.90;4.50;;;;;;;;;;4978766;28;20019;-76
2021/06/23 02:39:46;;;;;;;4.10;3.70;;;;;;;;;;4995458;28;20026;-76
2021/06/23 02:42:12;;;;;;;4.88;4.35;;;;;;;;;;4996062;28;20030;-76
2021/06/23 02:44:39;;;;;;;4.13;3.83;;;;;;;;;;4996004;28;20455;-76
2021/06/23 02:47:05;;;;;;;4.15;3.85;;;;;;;;;;4996085;28;20504;-75
2021/06/23 02:49:32;;;;;;;4.30;3.90;;;;;;;;;;4968379;28;20033;-76
2021/06/23 02:51:58;;;;;;;3.90;3.60;;;;;;;;;;4976508;28;20109;-76
2021/06/23 02:54:25;;;;;;;3.60;3.30;;;;;;;;;;4976802;28;20487;-77
2021/06/23 02:56:52;;;;;;;3.00;2.80;;;;;;;;;;4976557;28;20057;-76
2021/06/23 02:59:21;;;;;;;4.18;3.13;;;;;;;;;;4981225;28;20068;-76
2021/06/23 03:01:48;;;;;;;3.97;3.25;;;;;;;;;;4995815;28;20026;-77
2021/06/23 03:04:14;;;;;;;3.85;3.55;;;;;;;;;;4995261;28;20088;-77
2021/06/23 03:06:40;;;;;;;3.22;2.90;;;;;;;;;;5003499;28;20022;-77
2021/06/23 03:09:07;;;;;;;3.33;3.03;;;;;;;;;;5010523;28;20418;-76
2021/06/23 03:11:37;;;;;;;4.90;3.67;;;;;;;;;;4995306;28;20037;-77
2021/06/23 03:14:04;;;;;;;3.60;3.33;;;;;;;;;;4995597;28;20041;-77
2021/06/23 03:16:30;;;;;;;4.22;3.92;;;;;;;;;;4995528;28;20022;-76
2021/06/23 03:18:56;;;;;;;3.63;3.33;;;;;;;;;;4994842;28;20030;-77
2021/06/23 03:21:23;;;;;;;3.10;2.90;;;;;;;;;;4977745;28;20360;-76
2021/06/23 03:23:50;;;;;;;3.92;3.17;;;;;;;;;;4961988;28;20030;-77
2021/06/23 03:26:16;;;;;;;6.40;3.42;;;;;;;;;;4993878;28;20550;-77
2021/06/23 03:28:42;;;;;;;2.95;2.72;;;;;;;;;;5009343;28;20051;-77
2021/06/23 03:31:08;;;;;;;3.97;3.65;;;;;;;;;;4989959;28;20403;-77
2021/06/23 03:33:34;;;;;;;3.35;3.10;;;;;;;;;;4975751;28;20042;-77
2021/06/23 03:36:00;;;;;;;3.08;2.67;;;;;;;;;;4985768;28;20033;-77
2021/06/23 03:38:26;;;;;;;3.50;3.20;;;;;;;;;;5000555;28;20080;-77
2021/06/23 03:40:52;;;;;;;3.30;3.10;;;;;;;;;;4977091;28;20479;-77
2021/06/23 03:43:19;;;;;;;3.65;3.35;;;;;;;;;;4995697;28;20062;-78
2021/06/23 03:45:46;;;;;;;3.08;2.58;;;;;;;;;;4995492;28;20026;-78
2021/06/23 03:48:12;;;;;;;2.83;2.50;;;;;;;;;;4995904;28;20038;-78
2021/06/23 03:50:38;;;;;;;2.67;2.47;;;;;;;;;;4993264;28;20053;-79
2021/06/23 03:53:05;;;;;;;2.50;2.30;;;;;;;;;;4979158;28;20060;-78
2021/06/23 03:55:31;;;;;;;2.60;2.50;;;;;;;;;;4959080;28;20065;-78
2021/06/23 03:57:58;;;;;;;3.00;2.80;;;;;;;;;;4958727;28;20027;-78
2021/06/23 04:00:25;;;;;;;3.72;2.80;;;;;;;;;;4976103;28;20047;-78
2021/06/23 04:02:51;;;;;;;2.67;2.42;;;;;;;;;;4959256;28;20019;-78
2021/06/23 04:05:17;;;;;;;3.33;3.03;;;;;;;;;;4992300;28;20037;-78
2021/06/23 04:07:44;;;;;;;2.90;2.70;;;;;;;;;;5011840;28;20033;-79
2021/06/23 04:10:10;;;;;;;4.05;3.60;;;;;;;;;;5004895;28;20045;-79
2021/06/23 04:12:36;;;;;;;3.30;3.00;;;;;;;;;;4997888;28;20077;-79
2021/06/23 04:15:03;;;;;;;4.28;3.88;;;;;;;;;;4980773;28;20420;-78
2021/06/23 04:17:29;;;;;;;2.80;2.60;;;;;;;;;;4995795;28;20022;-78
2021/06/23 04:19:55;;;;;;;3.35;3.08;;;;;;;;;;4977711;28;20022;-78
2021/06/23 04:22:23;;;;;;;3.50;3.25;;;;;;;;;;4987266;28;20081;-77
2021/06/23 04:24:50;;;;;;;6.13;4.45;;;;;;;;;;4975992;28;20027;-79
2021/06/23 04:27:16;;;;;;;3.70;3.40;;;;;;;;;;4976223;28;20019;-79
2021/06/23 04:29:42;;;;;;;3.40;3.10;;;;;;;;;;4975883;28;20027;-78
2021/06/23 04:32:08;;;;;;;3.38;3.17;;;;;;;;;;4958826;28;20031;-78
2021/06/23 04:34:34;;;;;;;7.20;6.60;;;;;;;;;;4975714;28;20054;-79
2021/06/23 04:37:00;;;;;;;6.50;5.90;;;;;;;;;;5001716;28;20026;-78
2021/06/23 04:39:26;;;;;;;6.30;5.80;;;;;;;;;;5014299;28;20029;-77
2021/06/23 04:41:53;;;;;;;5.03;4.53;;;;;;;;;;5014464;28;20030;-78
2021/06/23 04:44:19;;;;;;;7.85;7.05;;;;;;;;;;4993013;28;20432;-78
2021/06/23 04:46:45;;;;;;;6.55;5.90;;;;;;;;;;4992894;28;20499;-78
2021/06/23 04:49:11;;;;;;;7.68;6.70;;;;;;;;;;4999934;28;20092;-77
2021/06/23 04:51:37;;;;;;;8.77;7.88;;;;;;;;;;5005127;28;21447;-79
2021/06/23 04:54:03;;;;;;;9.52;8.63;;;;;;;;;;5003370;28;20035;-78
2021/06/23 04:56:29;;;;;;;6.60;6.00;;;;;;;;;;4998189;28;20105;-77
2021/06/23 04:58:55;;;;;;;10.38;8.80;;;;;;;;;;4996931;28;20022;-79
2021/06/23 05:01:21;;;;;;;10.13;9.10;;;;;;;;;;5003790;28;20022;-79
2021/06/23 05:03:47;;;;;;;10.50;9.35;;;;;;;;;;5004124;28;20033;-79
2021/06/23 05:06:13;;;;;;;10.07;7.60;;;;;;;;;;5010828;28;20049;-79
2021/06/23 05:08:39;;;;;;;14.48;9.68;;;;;;;;;;5017032;28;20383;-78
2021/06/23 05:11:05;;;;;;;13.30;10.50;;;;;;;;;;5014970;28;20056;-79
2021/06/23 05:13:31;;;;;;;11.38;10.27;;;;;;;;;;4997846;28;20356;-79
2021/06/23 05:15:59;;;;;;;8.15;7.35;;;;;;;;;;5017241;28;20022;-78
2021/06/23 05:18:25;;;;;;;7.53;6.90;;;;;;;;;;5017914;28;20486;-78
2021/06/23 05:20:51;;;;;;;10.35;9.45;;;;;;;;;;5014628;28;20033;-79
2021/06/23 05:23:17;;;;;;;10.32;9.00;;;;;;;;;;5001682;28;20356;-78
2021/06/23 05:25:43;;;;;;;9.30;8.50;;;;;;;;;;5002210;28;20062;-78
2021/06/23 05:28:10;;;;;;;12.85;10.60;;;;;;;;;;4991058;28;20034;-79
2021/06/23 05:30:36;;;;;;;12.07;10.65;;;;;;;;;;4990383;28;20054;-82
2021/06/23 05:33:02;;;;;;;9.75;8.82;;;;;;;;;;4985940;28;20035;-78
2021/06/23 05:35:28;;;;;;;8.18;7.47;;;;;;;;;;4962704;28;20061;-78
2021/06/23 05:37:54;;;;;;;8.15;7.45;;;;;;;;;;4971901;28;20034;-77
2021/06/23 05:40:20;;;;;;;8.65;7.85;;;;;;;;;;5006263;28;20018;-77
2021/06/23 05:42:46;;;;;;;9.90;9.10;;;;;;;;;;5014389;28;20431;-77
2021/06/23 05:45:12;;;;;;;9.45;8.65;;;;;;;;;;4997742;28;20058;-77
2021/06/23 05:47:38;;;;;;;11.75;9.68;;;;;;;;;;4994360;28;20109;-77
2021/06/23 05:50:05;;;;;;;9.07;8.15;;;;;;;;;;4995145;28;20439;-78
2021/06/23 05:52:31;;;;;;;8.82;8.02;;;;;;;;;;5005754;28;20052;-76
2021/06/23 05:54:57;;;;;;;8.55;7.10;;;;;;;;;;5013562;28;20037;-78
2021/06/23 05:57:23;;;;;;;7.00;6.40;;;;;;;;;;4996895;28;20030;-78
2021/06/23 05:59:49;;;;;;;8.25;6.82;;;;;;;;;;4994728;28;20022;-77
2021/06/23 06:02:15;;;;;;;7.85;7.15;;;;;;;;;;4989404;28;20129;-77
2021/06/23 06:04:41;;;;;;;8.85;7.95;;;;;;;;;;5005153;28;20026;-77
2021/06/23 06:07:07;;;;;;;7.55;6.75;;;;;;;;;;5011532;28;20041;-78
2021/06/23 06:09:33;;;;;;;12.18;8.40;;;;;;;;;;5025503;22;20046;-79
2021/06/23 06:11:59;;;;;;;10.73;9.73;;;;;;;;;;5007010;28;20037;-80
2021/06/23 06:14:26;;;;;;;8.70;7.85;;;;;;;;;;4981230;28;20030;-80
2021/06/23 06:16:52;;;;;;;10.77;9.35;;;;;;;;;;4998968;28;20034;-78
2021/06/23 06:19:18;;;;;;;9.45;8.65;;;;;;;;;;5000196;28;20167;-80
2021/06/23 06:21:44;;;;;;;7.97;6.85;;;;;;;;;;5010510;28;20030;-81
2021/06/23 06:24:10;;;;;;;7.07;6.38;;;;;;;;;;5000455;28;20037;-80
2021/06/23 06:26:36;;;;;;;8.88;7.97;;;;;;;;;;5015026;28;20037;-80
2021/06/23 06:29:03;;;;;;;5.97;5.28;;;;;;;;;;5008327;28;20018;-78
2021/06/23 06:31:29;;;;;;;5.25;4.85;;;;;;;;;;5014585;28;20048;-80
2021/06/23 06:33:55;;;;;;;6.70;5.97;;;;;;;;;;5013417;28;20022;-79
2021/06/23 06:36:21;;;;;;;5.47;5.07;;;;;;;;;;5011752;28;20029;-79
2021/06/23 06:38:47;;;;;;;6.80;5.60;;;;;;;;;;5014328;28;20018;-79
2021/06/23 06:41:13;;;;;;;5.07;4.68;;;;;;;;;;5020061;28;20081;-80
2021/06/23 06:43:39;;;;;;;3.55;3.28;;;;;;;;;;5021147;28;20029;-79
2021/06/23 06:46:05;;;;;;;5.65;5.15;;;;;;;;;;5020230;28;20044;-80
2021/06/23 06:48:31;;;;;;;4.70;4.30;;;;;;;;;;5002116;28;20154;-80
2021/06/23 06:50:58;;;;;;;4.22;3.85;;;;;;;;;;5006387;28;20072;-79
2021/06/23 06:53:24;;;;;;;6.35;4.50;;;;;;;;;;5027930;28;20033;-79
2021/06/23 06:55:50;;;;;;;6.25;5.65;;;;;;;;;;5002022;28;20058;-79
2021/06/23 06:58:17;;;;;;;4.55;4.10;;;;;;;;;;5022130;28;20022;-78
2021/06/23 07:00:43;;;;;;;3.78;3.50;;;;;;;;;;5007617;28;20029;-79
2021/06/23 07:03:09;;;;;;;5.30;4.80;;;;;;;;;;4999475;28;20414;-79
2021/06/23 07:05:35;;;;;;;4.63;4.20;;;;;;;;;;5004108;28;20030;-79
2021/06/23 07:08:01;;;;;;;5.78;5.28;;;;;;;;;;5024787;28;20089;-80
2021/06/23 07:10:27;;;;;;;5.35;4.95;;;;;;;;;;5022244;28;20060;-80
2021/06/23 07:12:54;;;;;;;4.47;3.38;;;;;;;;;;5030202;28;20110;-82
2021/06/23 07:15:20;;;;;;;3.42;3.13;;;;;;;;;;5027113;28;20036;-81
2021/06/23 07:17:46;;;;;;;2.22;2.13;;;;;;;;;;5026607;28;20018;-81
2021/06/23 07:20:13;;;;;;;2.63;2.50;;;;;;;;;;5009345;28;20009;-80
2021/06/23 07:22:39;;;;;;;3.35;3.13;;;;;;;;;;5024607;28;20037;-80
2021/06/23 07:25:12;;;;;;;2.88;2.67;;;;;;;;;;5028283;28;20081;-79
2021/06/23 07:27:38;;;;;;;3.58;3.28;;;;;;;;;;5013045;28;20055;-81
2021/06/23 07:30:05;;;;;;;3.75;3.45;;;;;;;;;;5026968;28;20036;-80
2021/06/23 07:32:35;;;;;;;4.10;3.50;;;;;;;;;;5010955;28;20040;-79
2021/06/23 07:37:46;;;;;;;5.10;4.25;;;;;;;;;;5011163;28;20104;-81
2021/06/23 07:40:14;;;;;;;3.85;3.55;;;;;;;;;;5005754;28;20045;-79
2021/06/23 07:42:40;;;;;;;4.35;3.40;;;;;;;;;;5005562;28;20022;-81
2021/06/23 07:45:06;;;;;;;4.30;3.90;;;;;;;;;;4989529;28;20116;-79
2021/06/23 07:47:35;;;;;;;3.97;3.67;;;;;;;;;;5005959;28;20026;-80
2021/06/23 07:50:02;;;;;;;4.35;3.95;;;;;;;;;;4991760;28;20093;-80
2021/06/23 07:55:14;;;;;;;3.08;2.88;;;;;;;;;;5006802;28;20038;-80
2021/06/23 08:08:11;;;;;;;5.95;3.25;;;;;;;;;;5012024;28;20037;-80
2021/06/23 08:11:44;;;;;;;3.40;3.13;;;;;;;;;;5005022;28;20102;-81
2021/06/23 08:14:10;;;;;;;4.38;3.97;;;;;;;;;;5014122;28;20359;-80
2021/06/23 08:16:37;;;;;;;5.70;5.20;;;;;;;;;;5028936;28;20033;-79
2021/06/23 08:19:04;;;;;;;4.78;4.38;;;;;;;;;;5012091;28;20026;-80
2021/06/23 08:21:30;;;;;;;6.45;3.92;;;;;;;;;;5016115;28;20033;-81
2021/06/23 08:23:56;;;;;;;4.80;4.18;;;;;;;;;;5041429;28;20140;-81
2021/06/23 08:26:22;;;;;;;5.05;3.85;;;;;;;;;;5009662;28;20092;-81
2021/06/23 08:28:48;;;;;;;3.28;3.08;;;;;;;;;;5010399;28;20459;-78
2021/06/23 08:31:15;;;;;;;5.40;4.82;;;;;;;;;;4991580;28;20046;-80
2021/06/23 08:33:41;;;;;;;4.97;4.50;;;;;;;;;;4988533;28;20254;-80
2021/06/23 08:36:09;;;;;;;3.67;3.40;;;;;;;;;;5006444;28;20053;-81
2021/06/23 08:38:35;;;;;;;3.40;3.10;;;;;;;;;;5003403;28;20372;-80
2021/06/23 08:41:05;;;;;;;4.50;4.10;;;;;;;;;;5007572;28;20113;-79
2021/06/23 08:43:31;;;;;;;3.25;3.05;;;;;;;;;;5024279;28;20026;-80
2021/06/23 08:45:57;;;;;;;4.68;3.72;;;;;;;;;;5010500;28;20035;-80
2021/06/23 08:48:23;;;;;;;4.20;3.90;;;;;;;;;;5009612;28;20033;-80
2021/06/23 08:50:52;;;;;;;4.95;4.00;;;;;;;;;;5021683;28;20160;-79
2021/06/23 08:53:19;;;;;;;3.95;3.30;;;;;;;;;;5028408;28;20441;-80
2021/06/23 08:55:45;;;;;;;3.40;3.03;;;;;;;;;;5021889;28;20037;-80
2021/06/23 08:58:11;;;;;;;3.13;2.88;;;;;;;;;;5004134;28;20036;-80
2021/06/23 09:00:37;;;;;;;3.13;2.70;;;;;;;;;;4986986;28;20026;-80
2021/06/23 09:03:08;;;;;;;4.07;2.97;;;;;;;;;;4986841;28;20019;-80
2021/06/23 09:06:09;;;;;;;3.40;3.10;;;;;;;;;;4993343;28;20033;-80
2021/06/23 09:08:39;;;;;;;2.70;2.60;;;;;;;;;;4913307;29;20069;-79
2021/06/23 09:11:15;;;;;;;2.80;2.60;;;;;;;;;;4969365;28;20046;-79
2021/06/23 09:13:42;;;;;;;3.63;3.33;;;;;;;;;;5001941;28;20030;-80
2021/06/23 09:16:10;;;;;;;3.47;3.17;;;;;;;;;;5003161;28;20036;-79
2021/06/23 09:18:37;;;;;;;4.07;3.65;;;;;;;;;;5002169;28;20042;-80
2021/06/23 09:21:05;;;;;;;3.30;3.00;;;;;;;;;;5023481;28;20033;-79
2021/06/23 09:23:40;;;;;;;3.72;3.40;;;;;;;;;;5041439;28;20018;-80
2021/06/23 09:26:16;;;;;;;5.43;4.35;;;;;;;;;;5022778;28;20064;-81
2021/06/23 09:28:42;;;;;;;3.42;2.88;;;;;;;;;;5014700;28;20060;-80
2021/06/23 09:31:09;;;;;;;4.32;2.70;;;;;;;;;;5016170;28;20033;-81
2021/06/23 09:33:35;;;;;;;2.92;2.63;;;;;;;;;;5034131;28;20026;-81
2021/06/23 09:36:05;;;;;;;3.50;2.58;;;;;;;;;;5030934;28;20042;-80
2021/06/23 09:38:36;;;;;;;2.97;2.78;;;;;;;;;;5004263;28;20109;-80
2021/06/23 09:41:02;;;;;;;;;;;;;;;;;;5004327;28;20306;-80
2021/06/23 09:43:35;;;;;;;2.40;2.28;;;;;;;;;;4987902;28;19905;-80
2021/06/23 09:46:11;;;;;;;2.45;2.28;;;;;;;;;;5007364;28;20029;-78
2021/06/23 09:48:38;;;;;;;2.58;2.33;;;;;;;;;;4989458;28;20076;-78
2021/06/23 09:51:11;;;;;;;2.83;2.60;;;;;;;;;;5017170;28;20032;-79
2021/06/23 09:53:37;;;;;;;4.05;2.78;;;;;;;;;;5024131;28;20014;-79
2021/06/23 09:56:04;;;;;;;3.58;3.28;;;;;;;;;;5043968;28;20030;-80
2021/06/23 09:58:37;;;;;;;3.28;2.97;;;;;;;;;;5019538;28;20084;-80
2021/06/23 10:01:11;;;;;;;4.30;4.00;;;;;;;;;;5017465;28;20116;-78
2021/06/23 10:03:56;;;;;;;3.15;2.85;;;;;;;;;;5010868;28;20030;-80
2021/06/23 10:06:22;;;;;;;4.05;3.65;;;;;;;;;;5036720;28;20046;-79
2021/06/23 10:08:49;;;;;;;2.85;2.65;;;;;;;;;;5027875;28;20023;-78
2021/06/23 10:11:27;;;;;;;3.00;2.80;;;;;;;;;;5027688;28;20101;-78
2021/06/23 10:13:53;;;;;;;6.72;3.65;;;;;;;;;;5043470;28;20029;-80
2021/06/23 10:16:20;;;;;;;3.58;3.15;;;;;;;;;;5029931;28;20022;-79
2021/06/23 10:18:46;;;;;;;2.88;2.58;;;;;;;;;;5046123;28;20029;-80
2021/06/23 10:21:12;;;;;;;3.15;2.95;;;;;;;;;;5023543;28;20018;-80
2021/06/23 10:23:38;;;;;;;3.45;3.15;;;;;;;;;;5045172;28;20520;-79
2021/06/23 10:26:05;;;;;;;2.50;2.30;;;;;;;;;;5034330;28;20052;-78
2021/06/23 10:28:31;;;;;;;3.22;3.00;;;;;;;;;;5049988;28;20083;-79
2021/06/23 10:30:58;;;;;;;3.40;3.10;;;;;;;;;;5041597;28;20033;-79
2021/06/23 10:33:24;;;;;;;2.55;2.35;;;;;;;;;;5035402;28;20079;-80
2021/06/23 10:35:51;;;;;;;3.63;2.83;;;;;;;;;;5019678;28;20032;-79
2021/06/23 10:38:18;;;;;;;3.20;2.90;;;;;;;;;;5052374;28;20036;-81
2021/06/23 10:40:44;;;;;;;3.20;2.50;;;;;;;;;;5026861;28;20021;-81
2021/06/23 10:43:11;;;;;;;3.60;3.17;;;;;;;;;;5038889;28;20029;-80
2021/06/23 10:45:41;;;;;;;2.55;2.40;;;;;;;;;;5026251;28;20061;-79
2021/06/23 10:48:08;;;;;;;3.53;3.22;;;;;;;;;;5026321;28;20037;-82
2021/06/23 10:50:35;;;;;;;2.75;2.55;;;;;;;;;;5024725;28;20018;-79
2021/06/23 10:53:02;;;;;;;3.05;2.50;;;;;;;;;;5042466;28;20563;-79
2021/06/23 10:55:31;;;;;;;4.20;2.65;;;;;;;;;;5025414;28;20034;-79
2021/06/23 10:58:05;;;;;;;3.38;2.90;;;;;;;;;;5013129;28;20037;-78
2021/06/23 11:00:32;;;;;;;4.60;2.60;;;;;;;;;;5021983;28;20026;-80
2021/06/23 11:03:14;;;;;;;3.75;2.70;;;;;;;;;;5007202;28;20032;-79
2021/06/23 11:05:44;;;;;;;3.15;2.40;;;;;;;;;;5007787;28;20026;-79
2021/06/23 11:08:29;;;;;;;3.25;2.65;;;;;;;;;;5006994;28;20060;-79
2021/06/23 11:10:55;;;;;;;2.97;2.55;;;;;;;;;;5025306;28;20094;-79
2021/06/23 11:13:23;;;;;;;5.88;2.78;;;;;;;;;;5025765;28;20033;-79
2021/06/23 11:15:50;;;;;;;3.88;3.58;;;;;;;;;;5014292;28;20026;-80
2021/06/23 11:18:16;;;;;;;4.53;4.13;;;;;;;;;;5012018;28;20022;-79
2021/06/23 11:20:43;;;;;;;3.30;3.00;;;;;;;;;;5023928;28;20053;-81
2021/06/23 11:23:29;;;;;;;3.33;3.03;;;;;;;;;;5034382;28;20021;-80
2021/06/23 11:25:55;;;;;;;2.17;2.05;;;;;;;;;;5049291;28;20029;-79
2021/06/23 11:28:25;;;;;;;2.70;2.50;;;;;;;;;;5029844;28;20030;-80
2021/06/23 11:30:51;;;;;;;2.33;2.13;;;;;;;;;;5012917;28;20090;-81
2021/06/23 11:33:30;;;;;;;2.78;2.50;;;;;;;;;;5030422;28;20042;-80
2021/06/23 11:36:00;;;;;;;3.47;2.17;;;;;;;;;;5010437;28;20030;-78
2021/06/23 11:38:26;;;;;;;3.13;2.30;;;;;;;;;;5011805;28;20446;-80
2021/06/23 11:40:52;;;;;;;4.43;3.35;;;;;;;;;;5025992;28;20161;-81
2021/06/23 11:43:19;;;;;;;2.08;1.98;;;;;;;;;;5025139;28;20033;-79
2021/06/23 11:45:45;;;;;;;4.72;2.72;;;;;;;;;;5028251;28;20050;-79
2021/06/23 11:48:12;;;;;;;1.90;1.80;;;;;;;;;;5027859;28;20347;-80
2021/06/23 11:50:40;;;;;;;4.22;2.50;;;;;;;;;;5027949;28;20057;-79
2021/06/23 11:53:06;;;;;;;2.85;2.33;;;;;;;;;;5021125;28;20153;-80
2021/06/23 11:55:33;;;;;;;3.17;2.42;;;;;;;;;;5042380;28;20061;-79
2021/06/23 11:58:00;;;;;;;4.63;2.75;;;;;;;;;;5043819;28;20021;-80
2021/06/23 12:00:27;;;;;;;2.70;2.50;;;;;;;;;;5041246;28;20036;-80
2021/06/23 12:02:53;;;;;;;3.92;2.03;;;;;;;;;;5016092;28;20014;-78
2021/06/23 12:05:20;;;;;;;3.45;2.25;;;;;;;;;;5043591;28;20029;-79
2021/06/23 12:07:46;;;;;;;2.38;1.92;;;;;;;;;;5018840;28;20097;-79
2021/06/23 12:10:13;;;;;;;2.38;2.17;;;;;;;;;;5013930;28;20534;-78
2021/06/23 12:12:39;;;;;;;2.45;2.25;;;;;;;;;;5021273;23;20053;-78
2021/06/23 12:15:09;;;;;;;2.17;1.92;;;;;;;;;;5023705;28;20029;-79
2021/06/23 12:17:37;;;;;;;2.47;2.28;;;;;;;;;;5032939;28;20017;-78
2021/06/23 12:20:04;;;;;;;2.95;2.15;;;;;;;;;;5014822;28;20069;-78
2021/06/23 12:22:31;;;;;;;2.92;2.55;;;;;;;;;;4998614;28;20022;-79
2021/06/23 12:24:57;;;;;;;3.45;2.35;;;;;;;;;;5029221;28;20040;-79
2021/06/23 12:27:23;;;;;;;2.60;2.40;;;;;;;;;;5016544;28;20029;-77
2021/06/23 12:29:49;;;;;;;4.38;2.35;;;;;;;;;;5021382;28;20038;-78
2021/06/23 12:32:15;;;;;;;2.67;2.30;;;;;;;;;;5013922;28;20038;-79
2021/06/23 12:34:41;;;;;;;3.08;2.50;;;;;;;;;;5012000;28;20030;-78
2021/06/23 12:37:07;;;;;;;3.03;2.40;;;;;;;;;;5019091;28;20037;-78
2021/06/23 12:39:37;;;;;;;2.08;1.98;;;;;;;;;;5026984;28;20022;-78
2021/06/23 12:42:03;;;;;;;2.35;2.15;;;;;;;;;;5014430;28;20021;-77
2021/06/23 12:44:30;;;;;;;2.60;2.03;;;;;;;;;;5014682;28;20040;-79
2021/06/23 12:46:56;;;;;;;2.80;2.35;;;;;;;;;;5016269;28;20021;-76
2021/06/23 12:49:24;;;;;;;3.03;2.40;;;;;;;;;;5013856;28;20083;-78
2021/06/23 12:51:50;;;;;;;3.13;2.13;;;;;;;;;;4997078;28;20028;-79
2021/06/23 12:54:16;;;;;;;2.53;2.33;;;;;;;;;;5028450;28;20056;-78
2021/06/23 12:56:42;;;;;;;2.80;2.60;;;;;;;;;;5029520;28;20030;-79
2021/06/23 12:59:08;;;;;;;5.38;2.55;;;;;;;;;;5013477;28;20458;-79
2021/06/23 13:01:34;;;;;;;3.72;2.67;;;;;;;;;;5029871;28;20030;-78
2021/06/23 13:04:01;;;;;;;2.60;2.50;;;;;;;;;;4997516;28;20076;-78
2021/06/23 13:06:27;;;;;;;3.25;2.95;;;;;;;;;;5033523;28;20143;-78
2021/06/23 13:08:53;;;;;;;3.45;3.05;;;;;;;;;;5018737;28;20026;-77
2021/06/23 13:11:19;;;;;;;2.75;2.55;;;;;;;;;;5015650;28;20087;-76
2021/06/23 13:13:45;;;;;;;3.28;2.85;;;;;;;;;;5005963;28;20100;-78
2021/06/23 13:16:15;;;;;;;3.75;2.70;;;;;;;;;;5023415;28;20030;-78
2021/06/23 13:18:42;;;;;;;4.30;3.33;;;;;;;;;;5018921;28;20018;-77
2021/06/23 13:21:08;;;;;;;2.97;2.67;;;;;;;;;;5038753;28;20133;-77
2021/06/23 13:23:34;;;;;;;2.80;2.60;;;;;;;;;;5035788;28;20355;-77
2021/06/23 13:26:00;;;;;;;2.88;2.67;;;;;;;;;;5032542;28;20025;-78
2021/06/23 13:28:26;;;;;;;4.63;2.95;;;;;;;;;;5004208;28;20044;-80
2021/06/23 13:30:52;;;;;;;3.50;2.70;;;;;;;;;;5016740;28;20033;-76
2021/06/23 13:33:19;;;;;;;3.20;2.95;;;;;;;;;;5020901;28;20064;-79
2021/06/23 13:35:45;;;;;;;3.30;3.00;;;;;;;;;;5019978;28;20087;-79
2021/06/23 13:38:11;;;;;;;3.83;3.53;;;;;;;;;;5017735;28;20030;-79
2021/06/23 13:40:37;;;;;;;3.88;3.40;;;;;;;;;;5022508;28;20065;-78
2021/06/23 13:43:03;;;;;;;4.65;3.60;;;;;;;;;;4998293;28;20083;-77
2021/06/23 13:45:29;;;;;;;3.33;3.03;;;;;;;;;;5015837;28;20026;-76
2021/06/23 13:47:57;;;;;;;3.53;3.28;;;;;;;;;;5015364;28;20029;-78
2021/06/23 13:50:23;;;;;;;4.10;3.78;;;;;;;;;;5014857;28;20242;-77
2021/06/23 13:52:52;;;;;;;4.32;2.95;;;;;;;;;;5014738;28;20019;-77
2021/06/23 13:55:25;;;;;;;5.28;3.78;;;;;;;;;;5000179;28;20034;-77
2021/06/23 13:57:51;;;;;;;4.03;3.72;;;;;;;;;;5022843;28;20022;-77
2021/06/23 14:00:18;;;;;;;4.05;3.65;;;;;;;;;;5014961;28;20030;-77
2021/06/23 14:02:44;;;;;;;4.32;3.97;;;;;;;;;;5015602;28;20026;-78
2021/06/23 14:05:10;;;;;;;4.40;3.40;;;;;;;;;;5016561;28;20041;-77
2021/06/23 14:07:36;;;;;;;3.97;3.13;;;;;;;;;;5014644;28;20405;-79
2021/06/23 14:10:04;;;;;;;4.50;2.70;;;;;;;;;;5014471;28;20359;-77
2021/06/23 14:12:30;;;;;;;3.13;2.92;;;;;;;;;;5014512;28;20045;-80
2021/06/23 14:14:56;;;;;;;3.28;2.97;;;;;;;;;;5001754;28;20033;-78
2021/06/23 14:17:22;;;;;;;4.38;3.58;;;;;;;;;;4996553;28;20101;-79
2021/06/23 14:19:48;;;;;;;3.90;3.28;;;;;;;;;;5008163;28;20029;-80
2021/06/23 14:22:15;;;;;;;3.45;3.15;;;;;;;;;;5001323;28;20054;-79
2021/06/23 14:24:41;;;;;;;4.03;2.80;;;;;;;;;;5015589;28;20485;-79
2021/06/23 14:27:07;;;;;;;4.60;3.30;;;;;;;;;;5014935;28;20116;-78
2021/06/23 14:29:33;;;;;;;4.25;3.30;;;;;;;;;;4997601;28;20029;-76
2021/06/23 14:31:59;;;;;;;3.92;3.10;;;;;;;;;;5007508;28;20061;-78
2021/06/23 14:34:25;;;;;;;4.35;3.13;;;;;;;;;;5007233;28;20497;-78
2021/06/23 14:36:51;;;;;;;3.88;3.03;;;;;;;;;;5000027;28;20102;-79
2021/06/23 14:39:18;;;;;;;6.30;3.63;;;;;;;;;;5009256;28;20030;-78
2021/06/23 14:41:44;;;;;;;6.35;3.70;;;;;;;;;;4996986;28;20137;-78
2021/06/23 14:44:10;;;;;;;3.70;3.40;;;;;;;;;;5017864;28;20017;-79
2021/06/23 14:46:37;;;;;;;5.07;3.90;;;;;;;;;;4999051;28;20030;-77
2021/06/23 14:49:05;;;;;;;3.97;3.67;;;;;;;;;;4995486;28;20033;-77
2021/06/23 14:51:31;;;;;;;7.47;4.32;;;;;;;;;;5012569;28;20022;-78
2021/06/23 14:53:58;;;;;;;5.63;3.80;;;;;;;;;;5012129;28;20719;-76
2021/06/23 14:56:24;;;;;;;3.55;3.28;;;;;;;;;;5013652;28;20029;-79
2021/06/23 14:58:50;;;;;;;3.22;2.90;;;;;;;;;;5005069;28;20045;-77
2021/06/23 15:01:16;;;;;;;4.40;3.70;;;;;;;;;;4995916;28;20177;-78